Terminal Aerodrome Forecast
Issued by NWS Rapid City, SD

Home | Current Version | Previous Version | Graphics & Text | Print | Product List | Glossary On
Versions: 1 2 3 4 5 6 7 8 9 10 11 12 13 14 15 16
000
FTUS43 KUNR 260500
TAFRAP
TAF
KRAP 260520Z 2606/2706 01010KT 5SM -SN BR SCT015 OVC025
      TEMPO 2606/2609 1SM -SN BR OVC012
     FM260900 02014KT P6SM OVC015
     FM261700 03014KT P6SM BKN250=

USA.gov is the U.S. government's official web portal to all federal, state and local government web resources and services.